Latest Coastal Weather Observations for Mallacoota

IDV60701

Issued at 5:11 pm EDT Friday 24 March 2017 (issued every 10 minutes, with the page automatically refreshed every 10 minutes)

About coastal observations | Map of coastal stations | Coastal observations for VIC | Marine services | Other Formats
Station Details ID: 084084 Name: MALLACOOTA Lat: -37.60 Lon: 149.73 Height: 22.0 m
Data from the previous 72 hours. | See also: Recent months at Mallacoota
Date/Time
EDT
Temp
°C
Wind Pressure Rain since
9am
mm
Weather Cloud Vis
km
Sea
Height
m
Swell
Dir  Spd
kts
Gust
kts
hPa Trend Height
m
Period
s
Dir
24/05:00pm 20.4 E 7 10 1019.6 - 0.0 - - - - - - -
24/04:30pm 19.2 E 8 10 1019.5 - 0.0 - - - - - - -
24/04:00pm 20.0 E 8 11 1019.3 - 0.0 - - - - - - -
24/03:30pm 20.7 E 6 8 1020.0 - 0.0 - - - - - - -
24/03:00pm 20.8 E 6 8 1020.5 - 0.0 - - - - - - -
24/02:30pm 20.9 E 5 7 1020.9 - 0.0 - - - - - - -
24/02:00pm 20.5 SE 5 6 1021.1 - 0.0 - - - - - - -
24/01:30pm 20.5 SSE 5 5 1021.6 - 0.0 - - - - - - -
24/01:00pm 20.3 SSE 4 5 1021.9 - 0.0 - - - - - - -
24/12:30pm 19.1 S 5 6 1022.2 - 0.0 - - - - - - -
24/12:00pm 19.8 SSE 5 6 1022.5 - 0.0 - - - - - - -
24/11:30am 19.8 SE 3 5 1022.6 - 0.0 - - - - - - -
24/11:00am 19.0 SE 3 5 1022.5 - 0.0 - - - - - - -
24/10:30am 18.7 E 3 4 1022.4 - 0.0 - - - - - - -
24/10:00am 17.9 W 3 4 1022.4 - 0.0 - - - - - - -
24/09:30am 17.3 WNW 4 6 1022.2 - 0.0 - - - - - - -
24/09:00am 17.1 WNW 3 5 1022.0 - 13.0 Recent precip. - - - - - -
24/08:30am 16.7 W 1 3 1021.8 - 13.0 - - - - - - -
24/08:00am 16.4 W 4 5 1021.7 - 12.8 - - - - - - -
24/07:30am 16.1 WNW 4 5 1021.6 - 12.8 - - - - - - -
24/07:00am 16.1 W 4 5 1021.3 - 12.8 - - - - - - -
24/06:30am 16.1 W 5 7 1021.2 - 12.8 - - - - - - -
24/06:00am 16.1 WSW 4 6 1021.1 - 12.8 Rain - - - - - -
24/05:30am 16.2 WSW 4 5 1020.8 - 12.6 - - - - - - -
24/05:00am 16.2 WSW 3 5 1020.9 - 10.8 - - - - - - -
24/04:30am 16.3 WNW 5 7 1021.0 - 9.4 - - - - - - -
24/04:00am 16.4 W 3 4 1020.9 - 9.4 - - - - - - -
24/03:30am 16.6 ENE 2 4 1021.0 - 9.4 - - - - - - -
24/03:00am 16.7 ESE 4 5 1021.1 - 9.4 - - - - - - -
24/02:30am 16.4 SE 8 12 1021.5 - 9.4 - - - - - - -
24/02:00am 16.8 SSE 5 14 1021.7 - 9.4 - - - - - - -
24/01:30am 16.0 W 3 4 1021.8 - 9.4 - - - - - - -
24/01:00am 16.2 SSW 7 10 1021.8 - 9.4 - - - - - - -
24/12:30am 16.4 W 5 6 1021.8 - 9.4 - - - - - - -
24/12:00am 16.5 NW 1 4 1021.7 - 9.4 Recent precip. - - - - - -
 
Date/Time
EDT
Temp
°C
Wind Pressure Rain since
9am
mm
Weather Cloud Vis
km
Sea
Height
m
Swell
Dir  Spd
kts
Gust
kts
hPa Trend Height
m
Period
s
Dir
23/11:30pm 16.6 WNW 4 5 1021.9 - 8.0 - - - - - - -
23/11:00pm 16.7 WNW 3 7 1021.9 - 8.0 - - - - - - -
23/10:30pm 16.8 W 2 4 1022.1 - 7.8 - - - - - - -
23/10:00pm 16.8 NW 5 6 1022.1 - 7.6 - - - - - - -
23/09:30pm 16.9 CALM 0 0 1022.0 - 7.6 - - - - - - -
23/09:00pm 16.9 E 6 8 1021.7 - 7.4 Rain - - - - - -
23/08:30pm 16.9 CALM 0 0 1021.3 - 6.2 - - - - - - -
23/08:00pm 17.1 CALM 0 0 1021.0 - 6.2 - - - - - - -
23/07:30pm 17.1 ESE 7 11 1020.8 - 6.2 - - - - - - -
23/07:00pm 16.9 ESE 5 8 1020.7 - 6.0 - - - - - - -
23/06:30pm 17.5 ENE 3 5 1020.6 - 5.2 - - - - - - -
23/06:00pm 17.2 ESE 10 14 1020.4 - 5.0 Recent precip. - - - - - -
23/05:30pm 17.1 SSW 6 9 1020.4 - 5.0 - - - - - - -
23/05:00pm 17.2 SSE 6 12 1020.3 - 4.6 - - - - - - -
23/04:30pm 17.8 ESE 4 7 1020.2 - 4.6 - - - - - - -
23/04:00pm 18.0 SE 7 12 1020.3 - 4.4 - - - - - - -
23/03:30pm 18.2 SE 6 12 1020.2 - 4.4 - - - - - - -
23/03:00pm 17.7 SE 11 15 1020.2 - 4.4 - - - - - - -
23/02:30pm 17.3 SE 6 11 1020.4 - 4.4 - - - - - - -
23/02:00pm 17.5 E 7 10 1020.7 - 4.4 - - - - - - -
23/01:30pm 16.9 ESE 9 13 1020.8 - 4.4 - - - - - - -
23/01:00pm 17.0 SE 6 10 1021.1 - 2.0 - - - - - - -
23/12:30pm 17.3 SSW 4 8 1021.3 - 1.0 - - - - - - -
23/12:00pm 17.2 SE 5 10 1021.5 - 0.6 Recent precip. - - - - - -
23/11:30am 16.9 ESE 5 9 1021.6 - 0.4 - - - - - - -
23/11:00am 17.3 WNW 4 7 1021.8 - 0.4 - - - - - - -
23/10:30am 17.2 S 6 11 1021.6 - 0.4 - - - - - - -
23/10:00am 17.6 SSW 7 10 1021.5 - 0.2 - - - - - - -
23/09:30am 17.4 SW 4 7 1021.3 - 0.2 - - - - - - -
23/09:00am 16.8 SW 3 6 1021.2 - 11.8 Recent precip. - - - - - -
23/08:30am 16.8 SW 4 7 1021.0 - 10.8 - - - - - - -
23/08:00am 16.7 WSW 3 6 1020.8 - 10.4 - - - - - - -
23/07:30am 16.5 W 3 4 1020.6 - 9.4 - - - - - - -
23/07:00am 16.4 SW 3 5 1020.4 - 6.8 - - - - - - -
23/06:30am 16.4 S 5 9 1020.2 - 6.6 - - - - - - -
23/06:00am 16.6 SSW 6 9 1020.1 - 6.0 - - - - - - -
23/05:30am 16.7 SSW 5 7 1020.0 - 6.0 - - - - - - -
23/05:00am 16.6 SSW 4 7 1019.8 - 6.0 - - - - - - -
23/04:30am 16.5 SSW 6 10 1019.7 - 5.8 - - - - - - -
23/04:00am 16.7 SSW 7 10 1019.5 - 5.8 - - - - - - -
23/03:30am 16.7 SSW 8 11 1019.6 - 5.6 - - - - - - -
23/03:00am 16.9 SSW 7 10 1019.5 - 5.6 Rain - - - - - -
23/02:30am 16.8 S 9 14 1019.6 - 5.4 - - - - - - -
23/02:00am 17.1 S 6 10 1019.5 - 5.4 - - - - - - -
23/01:30am 17.0 S 11 14 1019.6 - 5.4 - - - - - - -
23/01:00am 16.9 S 13 17 1019.8 - 5.4 - - - - - - -
23/12:30am 17.3 S 9 15 1019.8 - 5.4 - - - - - - -
23/12:00am 17.4 SSW 7 12 1019.8 - 5.4 - - - - - - -
 
Date/Time
EDT
Temp
°C
Wind Pressure Rain since
9am
mm
Weather Cloud Vis
km
Sea
Height
m
Swell
Dir  Spd
kts
Gust
kts
hPa Trend Height
m
Period
s
Dir
22/11:30pm 17.2 S 9 14 1019.7 - 5.4 - - - - - - -
22/11:00pm 17.5 S 11 19 1019.6 - 5.4 - - - - - - -
22/10:30pm 17.2 S 11 16 1019.7 - 5.4 - - - - - - -
22/10:00pm 17.4 S 13 19 1019.5 - 5.4 - - - - - - -
22/09:30pm 17.4 S 12 17 1019.1 - 5.4 - - - - - - -
22/09:00pm 17.5 S 11 17 1018.8 - 5.4 - - - - - - -
22/08:30pm 17.5 SSW 10 15 1018.3 - 5.4 - - - - - - -
22/08:00pm 17.8 S 9 17 1017.9 - 5.4 - - - - - - -
22/07:30pm 17.7 S 8 16 1017.3 - 5.4 - - - - - - -
22/07:00pm 18.0 S 15 21 1016.8 - 5.4 - - - - - - -
22/06:30pm 18.0 S 14 18 1016.3 - 5.4 - - - - - - -
22/06:00pm 17.8 S 14 20 1016.0 - 5.2 - - - - - - -
22/05:30pm 17.7 SSW 11 21 1015.8 - 5.2 - - - - - - -
22/05:00pm 17.8 SSW 8 12 1015.6 - 5.2 - - - - - - -
22/04:30pm 17.8 S 15 21 1015.2 - 5.2 - - - - - - -
22/04:00pm 17.8 S 12 19 1015.0 - 5.2 - - - - - - -
22/03:30pm 17.9 SSW 10 18 1014.8 - 5.2 - - - - - - -
22/03:00pm 18.2 SSW 9 13 1014.5 - 5.2 Recent precip. - - - - - -
22/02:30pm 18.2 SSW 11 17 1014.5 - 5.0 - - - - - - -
22/02:00pm 18.6 SSW 13 19 1014.4 - 3.8 - - - - - - -
22/01:30pm 18.6 SSW 11 16 1014.0 - 2.8 - - - - - - -
22/01:00pm 19.5 SSW 13 19 1013.7 - 1.8 - - - - - - -
22/12:30pm 19.5 SSW 11 17 1013.4 - 0.8 - - - - - - -
22/12:00pm 19.7 SSW 12 17 1013.5 - 0.6 Rain - - - - - -
22/11:30am 20.9 SSW 9 14 1013.2 - 0.0 - - - - - - -
22/11:00am 23.0 SW 9 15 1012.6 - 0.0 - - - - - - -
22/10:30am 23.8 SW 11 19 1012.2 - 0.0 - - - - - - -
22/10:00am 24.5 SW 10 15 1011.8 - 0.0 - - - - - - -
22/09:30am 23.1 WSW 10 15 1011.6 - 0.0 - - - - - - -
22/09:00am 23.3 WSW 8 13 1011.4 - 0.0 - - - - - - -
22/08:30am 22.1 WSW 9 16 1011.0 - 0.0 - - - - - - -
22/08:00am 21.3 W 7 13 1010.9 - 0.0 - - - - - - -
22/07:30am 20.8 W 6 11 1010.6 - 0.0 - - - - - - -
22/07:00am 20.8 W 5 8 1010.4 - 0.0 - - - - - - -
22/06:30am 20.8 WSW 5 9 1009.9 - 0.0 - - - - - - -
22/06:00am 20.7 WSW 3 6 1009.7 - 0.0 - - - - - - -
22/05:30am 20.9 WSW 5 7 1009.6 - 0.0 - - - - - - -
22/05:00am 20.1 WNW 4 7 1009.6 - 0.0 - - - - - - -
22/04:30am 19.4 SSE 3 5 1009.5 - 0.0 - - - - - - -
22/04:00am 20.5 WNW 3 5 1009.4 - 0.0 - - - - - - -
22/03:30am 20.3 CALM 0 1 1009.2 - 0.0 - - - - - - -
22/03:00am 20.3 WSW 2 5 1009.2 - 0.0 - - - - - - -
22/02:30am 20.0 W 3 5 1009.8 - 0.0 - - - - - - -
22/02:00am 19.8 SW 4 6 1009.5 - 0.0 - - - - - - -
22/01:30am 19.0 CALM 0 3 1009.8 - 0.0 - - - - - - -
22/01:00am 19.0 N 1 3 1010.0 - 0.0 - - - - - - -
22/12:30am 19.0 CALM 0 0 1010.1 - 0.0 - - - - - - -
22/12:00am 19.0 CALM 0 0 1010.3 - 0.0 - - - - - - -
 
Date/Time
EDT
Temp
°C
Wind Pressure Rain since
9am
mm
Weather Cloud Vis
km
Sea
Height
m
Swell
Dir  Spd
kts
Gust
kts
hPa Trend Height
m
Period
s
Dir
21/11:30pm 19.1 CALM 0 0 1010.6 - 0.0 - - - - - - -
21/11:00pm 19.0 NNE 2 4 1010.8 - 0.0 - - - - - - -
21/10:30pm 18.8 NE 2 4 1011.0 - 0.0 - - - - - - -
21/10:00pm 19.4 CALM 0 0 1011.1 - 0.0 - - - - - - -
21/09:30pm 19.2 SSW 3 4 1011.0 - 0.0 - - - - - - -
21/09:00pm 20.3 NNW 3 4 1010.7 - 0.0 - - - - - - -
21/08:30pm 20.5 NW 2 4 1010.5 - 0.0 - - - - - - -
21/08:00pm 20.3 CALM 0 0 1010.3 - 0.0 - - - - - - -
21/07:30pm 19.5 SSW 2 5 1010.2 - 0.0 - - - - - - -
21/07:00pm 19.7 SSW 4 5 1010.1 - 0.0 - - - - - - -
21/06:30pm 19.5 SSW 6 8 1010.2 - 0.0 - - - - - - -
21/06:00pm 20.2 S 7 9 1010.3 - 0.0 - - - - - - -
21/05:30pm 21.1 S 4 6 1010.3 - 0.0 - - - - - - -

Other Formats:

Comma delimited format used in spreadsheet applications
http://www.bom.gov.au/fwo/IDV60701/IDV60701.94935.axf

JavaScript Object Notation format (JSON) in row-major order
http://www.bom.gov.au/fwo/IDV60701/IDV60701.94935.json